Kings Bay, Georgia
Current Conditions -  °F | °C
As of 4:55 PM on Monday 22 Dec 2014 (Local Time) from KFHB Reporting Station
Thunderstorm Thunderstorm  
Wind Chill: 68°   Ceiling: 4800
Heat Index: 68°   Visibility: 7mi
Dew Point: 66°   Wind: 5mph
Humidity: 94%   Direction: 60°ENE
Pressure: 29.9"   Gusts: NA
Location:  30.77°N, 81.68°W
Report Text: KFHB 222155Z AUTO 06004KT 7SM VCTS SCT041 BKN048 OVC050 20/19 A2990 RMK AO1 LTG DSNT ALQS
Loading
Personal Weather Stations






























Interactive Weather Map New forecast layout! Learn more

10-Day Weather Forecast

Advertisements
Track Severe Weather on mobile